createdAt,value
2023-09-11T00:04:58.389Z,100517.88
2023-09-11T00:10:00.522Z,100520.59
2023-09-11T00:15:02.820Z,100513.69
2023-09-11T00:20:11.613Z,100518.37
2023-09-11T00:25:13.866Z,100515.69
2023-09-11T00:30:15.956Z,100517.09
2023-09-11T00:35:18.152Z,100513.16
2023-09-11T00:40:20.325Z,100500.66
2023-09-11T00:45:22.587Z,100506.25
2023-09-11T00:50:25.860Z,100491.00
2023-09-11T00:55:28.816Z,100506.34
2023-09-11T01:00:31.478Z,100510.00
2023-09-11T01:05:37.099Z,100492.88
2023-09-11T01:10:39.278Z,100507.72
2023-09-11T01:15:54.303Z,100503.44
2023-09-11T01:21:22.777Z,100493.66
2023-09-11T01:26:27.674Z,100496.41
2023-09-11T01:31:32.975Z,100498.09
2023-09-11T01:36:35.212Z,100495.72
2023-09-11T01:41:40.886Z,100497.09
2023-09-11T01:46:45.450Z,100495.94
2023-09-11T01:51:48.567Z,100498.88
2023-09-11T01:56:51.264Z,100484.50
2023-09-11T02:01:53.518Z,100498.16
2023-09-11T02:06:56.013Z,100496.88
2023-09-11T02:11:58.238Z,100501.03
2023-09-11T02:17:04.133Z,100494.87
2023-09-11T02:22:06.453Z,100492.66
2023-09-11T02:27:08.531Z,100498.13
2023-09-11T02:32:10.619Z,100485.81
2023-09-11T02:37:13.130Z,100491.37
2023-09-11T02:42:15.320Z,100504.87
2023-09-11T02:47:17.406Z,100488.78
2023-09-11T02:52:19.928Z,100488.31
2023-09-11T02:57:22.234Z,100479.34
2023-09-11T03:02:24.343Z,100473.63
2023-09-11T03:07:26.580Z,100480.56
2023-09-11T03:12:29.263Z,100477.16
2023-09-11T03:17:31.875Z,100487.69
2023-09-11T03:22:34.156Z,100474.91
2023-09-11T03:27:36.279Z,100486.59
2023-09-11T03:32:38.538Z,100492.62
2023-09-11T03:37:40.736Z,100476.97
2023-09-11T03:42:42.846Z,100476.38
2023-09-11T03:47:45.098Z,100472.06
2023-09-11T03:52:47.327Z,100478.91
2023-09-11T03:57:49.531Z,100484.69
2023-09-11T04:02:51.759Z,100482.53
2023-09-11T04:07:53.987Z,100461.06
2023-09-11T04:12:56.131Z,100476.88
2023-09-11T04:17:58.693Z,100470.84
2023-09-11T04:23:04.371Z,100468.13
2023-09-11T04:28:06.645Z,100457.59
2023-09-11T04:33:08.879Z,100459.41
2023-09-11T04:38:11.353Z,100466.72
2023-09-11T04:43:13.450Z,100467.78
2023-09-11T04:48:15.733Z,100464.50
2023-09-11T04:53:17.976Z,100459.47
2023-09-11T04:58:20.311Z,100465.41
2023-09-11T05:03:22.574Z,100460.53
2023-09-11T05:08:25.041Z,100454.97
2023-09-11T05:13:27.176Z,100455.25
2023-09-11T05:18:29.351Z,100457.94
2023-09-11T05:23:31.475Z,100455.16
2023-09-11T05:28:33.769Z,100445.69
2023-09-11T05:33:35.995Z,100452.59
2023-09-11T05:38:38.284Z,100440.44
2023-09-11T05:43:41.656Z,100465.81
2023-09-11T05:48:44.151Z,100457.78
2023-09-11T05:53:46.596Z,100471.00
2023-09-11T05:58:49.004Z,100461.50
2023-09-11T06:03:51.597Z,100458.09
2023-09-11T06:08:53.818Z,100460.81
2023-09-11T06:13:55.929Z,100459.22
2023-09-11T06:19:01.422Z,100457.31
2023-09-11T06:24:05.854Z,100446.56
2023-09-11T06:29:08.016Z,100457.16
2023-09-11T06:34:10.145Z,100444.56
2023-09-11T06:39:12.307Z,100454.06
2023-09-11T06:44:14.477Z,100463.34
2023-09-11T06:49:16.602Z,100460.25
2023-09-11T06:54:18.732Z,100458.09
2023-09-11T06:59:21.140Z,100461.19
2023-09-11T07:04:23.410Z,100471.16
2023-09-11T07:09:25.630Z,100475.66
2023-09-11T07:14:27.946Z,100477.72
2023-09-11T07:19:30.087Z,100479.59
2023-09-11T07:24:32.308Z,100479.56
2023-09-11T07:29:34.516Z,100482.62
2023-09-11T07:34:36.634Z,100480.75
2023-09-11T07:39:38.697Z,100496.09
2023-09-11T07:44:40.841Z,100481.03
2023-09-11T07:49:43.047Z,100499.78
2023-09-11T07:54:45.354Z,100494.94
2023-09-11T07:59:47.450Z,100482.06
2023-09-11T08:04:49.616Z,100490.06
2023-09-11T08:09:53.466Z,100483.16
2023-09-11T08:14:56.880Z,100471.37
2023-09-11T08:20:05.140Z,100477.50
2023-09-11T08:25:09.014Z,100481.09
2023-09-11T08:30:11.471Z,100474.66
2023-09-11T08:35:13.684Z,100473.12
2023-09-11T08:40:16.425Z,100472.59
2023-09-11T08:45:18.539Z,100467.72
2023-09-11T08:50:23.451Z,100469.22
2023-09-11T08:55:28.886Z,100457.25
2023-09-11T09:00:33.330Z,100462.88
2023-09-11T09:05:36.723Z,100448.97
2023-09-11T09:10:41.008Z,100449.03
2023-09-11T09:15:45.958Z,100452.84
2023-09-11T09:20:48.330Z,100441.94
2023-09-11T09:26:04.056Z,100453.94
2023-09-11T09:31:06.761Z,100440.44
2023-09-11T09:36:09.004Z,100440.78
2023-09-11T09:41:11.954Z,100423.84
2023-09-11T09:46:22.323Z,100437.00
2023-09-11T09:51:25.957Z,100429.87
2023-09-11T09:56:28.373Z,100427.00
2023-09-11T10:01:30.566Z,100425.62
2023-09-11T10:06:33.488Z,100415.25
2023-09-11T10:11:36.830Z,100405.41
2023-09-11T10:16:39.254Z,100408.38
2023-09-11T10:21:41.439Z,100406.87
2023-09-11T10:26:57.890Z,100385.91
2023-09-11T10:32:06.748Z,100383.63
2023-09-11T10:37:08.925Z,100367.62
2023-09-11T10:42:11.880Z,100372.44
2023-09-11T10:47:16.866Z,100360.41
2023-09-11T10:52:19.454Z,100352.00
2023-09-11T10:57:21.618Z,100358.00
2023-09-11T11:02:23.884Z,100360.78
2023-09-11T11:07:26.195Z,100346.78
2023-09-11T11:12:33.708Z,100354.41
2023-09-11T11:17:41.621Z,100342.37
2023-09-11T11:22:43.799Z,100348.41
2023-09-11T11:27:46.176Z,100339.16
2023-09-11T11:32:49.738Z,100342.37
2023-09-11T11:37:54.191Z,100350.41
2023-09-11T11:42:56.657Z,100325.50
2023-09-11T11:47:59.197Z,100320.69
2023-09-11T11:53:01.401Z,100315.88
2023-09-11T11:58:05.634Z,100306.28
2023-09-11T12:03:09.555Z,100302.63
2023-09-11T12:08:13.472Z,100296.53
2023-09-11T12:13:34.678Z,100294.19
2023-09-11T12:18:43.086Z,100290.19
2023-09-11T12:23:45.506Z,100285.72
2023-09-11T12:28:48.993Z,100274.47
2023-09-11T12:33:55.521Z,100280.81
2023-09-11T12:38:59.565Z,100280.87
2023-09-11T12:44:03.087Z,100265.81
2023-09-11T12:49:05.974Z,100271.44
2023-09-11T12:54:09.197Z,100259.59
2023-09-11T12:59:13.958Z,100266.03
2023-09-11T13:04:16.059Z,100260.47
2023-09-11T13:09:22.397Z,100253.06
2023-09-11T13:14:24.577Z,100247.94
2023-09-11T13:19:26.724Z,100243.50
2023-09-11T13:24:28.941Z,100241.56
2023-09-11T13:29:31.102Z,100232.47
2023-09-11T13:34:33.385Z,100227.47
2023-09-11T13:39:35.508Z,100229.78
2023-09-11T13:44:37.825Z,100215.91
2023-09-11T13:49:40.081Z,100212.84
2023-09-11T13:54:45.595Z,100206.25
2023-09-11T13:59:47.840Z,100202.16
2023-09-11T14:04:50.067Z,100199.75
2023-09-11T14:09:52.877Z,100193.19
2023-09-11T14:14:55.121Z,100184.44
2023-09-11T14:19:57.418Z,100187.97
2023-09-11T14:25:00.732Z,100177.97
2023-09-11T14:30:03.538Z,100178.53
2023-09-11T14:35:06.247Z,100168.38
2023-09-11T14:40:09.333Z,100172.03
2023-09-11T14:45:12.131Z,100179.28
2023-09-11T14:50:15.178Z,100175.78
2023-09-11T14:55:17.299Z,100153.41
2023-09-11T15:00:19.727Z,100148.94
2023-09-11T15:05:22.232Z,100146.50
2023-09-11T15:10:24.450Z,100141.19
2023-09-11T15:15:26.624Z,100140.81
2023-09-11T15:20:29.189Z,100133.31
2023-09-11T15:25:31.399Z,100128.06
2023-09-11T15:30:38.599Z,100138.03
2023-09-11T15:36:03.038Z,100138.81
2023-09-11T15:41:06.322Z,100135.81
2023-09-11T15:46:11.733Z,100126.81
2023-09-11T15:51:13.953Z,100129.72
2023-09-11T15:56:16.233Z,100121.00
2023-09-11T16:01:19.150Z,100110.59
2023-09-11T16:06:21.328Z,100110.97
2023-09-11T16:11:23.550Z,100103.75
2023-09-11T16:16:25.810Z,100098.13
2023-09-11T16:21:39.588Z,100100.47
2023-09-11T16:26:43.332Z,100103.22
2023-09-11T16:31:46.030Z,100093.12
2023-09-11T16:36:48.235Z,100093.38
2023-09-11T16:41:50.392Z,100094.03
2023-09-11T16:46:52.508Z,100094.22
2023-09-11T16:51:54.743Z,100098.78
2023-09-11T16:56:56.930Z,100089.25
2023-09-11T17:02:01.075Z,100095.03
2023-09-11T17:07:03.349Z,100093.50
2023-09-11T17:12:05.903Z,100094.34
2023-09-11T17:17:08.094Z,100100.09
2023-09-11T17:22:10.366Z,100101.81
2023-09-11T17:27:12.691Z,100104.75
2023-09-11T17:32:14.867Z,100093.59
2023-09-11T17:37:17.512Z,100100.06
2023-09-11T17:42:19.944Z,100096.12
2023-09-11T17:47:22.126Z,100099.25
2023-09-11T17:52:24.356Z,100115.75
2023-09-11T17:57:26.591Z,100112.78
2023-09-11T18:02:28.834Z,100122.97
2023-09-11T18:07:30.940Z,100123.03
2023-09-11T18:12:33.806Z,100127.47
2023-09-11T18:17:35.967Z,100131.34
2023-09-11T18:22:38.163Z,100129.41
2023-09-11T18:27:40.375Z,100142.59
2023-09-11T18:32:42.530Z,100135.41
2023-09-11T18:37:44.715Z,100137.38
2023-09-11T18:42:46.885Z,100147.16
2023-09-11T18:47:50.047Z,100158.78
2023-09-11T18:52:54.535Z,100153.88
2023-09-11T18:57:56.638Z,100156.25
2023-09-11T19:02:58.988Z,100163.53
2023-09-11T19:08:01.230Z,100161.25
2023-09-11T19:13:03.753Z,100152.13
2023-09-11T19:18:06.259Z,100157.81
2023-09-11T19:23:08.503Z,100156.25
2023-09-11T19:28:10.645Z,100169.88
2023-09-11T19:33:13.060Z,100162.72
2023-09-11T19:38:15.302Z,100160.31
2023-09-11T19:43:17.492Z,100171.97
2023-09-11T19:48:19.785Z,100168.00
2023-09-11T19:53:21.992Z,100160.03
2023-09-11T19:58:24.138Z,100160.72
2023-09-11T20:03:26.545Z,100155.87
2023-09-11T20:08:28.759Z,100161.84
2023-09-11T20:13:31.237Z,100156.94
2023-09-11T20:18:33.503Z,100166.09
2023-09-11T20:23:35.735Z,100145.69
2023-09-11T20:28:37.829Z,100138.41
2023-09-11T20:33:44.342Z,100147.94
2023-09-11T20:38:49.521Z,100152.37
2023-09-11T20:43:51.681Z,100149.44
2023-09-11T20:48:53.873Z,100142.72
2023-09-11T20:53:56.078Z,100152.87
2023-09-11T20:58:58.195Z,100153.25
2023-09-11T21:04:00.718Z,100158.31
2023-09-11T21:09:02.963Z,100157.56
2023-09-11T21:14:05.191Z,100157.66
2023-09-11T21:19:07.357Z,100163.53
2023-09-11T21:29:11.796Z,100146.47
2023-09-11T21:34:13.957Z,100156.38
2023-09-11T21:39:16.265Z,100156.84
2023-09-11T21:44:18.453Z,100159.31
2023-09-11T21:49:20.642Z,100153.69
2023-09-11T21:54:24.769Z,100162.81
2023-09-11T21:59:29.384Z,100160.91
2023-09-11T22:04:32.485Z,100158.47
2023-09-11T22:09:34.614Z,100154.09
2023-09-11T22:14:36.722Z,100156.84
2023-09-11T22:19:38.845Z,100154.28
2023-09-11T22:24:41.027Z,100170.03
2023-09-11T22:29:43.179Z,100156.09
2023-09-11T22:34:45.763Z,100156.09
2023-09-11T22:39:48.135Z,100166.94
2023-09-11T22:44:50.945Z,100154.78
2023-09-11T22:49:53.107Z,100159.97
2023-09-11T22:54:55.228Z,100156.59
2023-09-11T23:00:00.371Z,100157.38
2023-09-11T23:05:03.556Z,100155.75
2023-09-11T23:10:06.404Z,100155.75
2023-09-11T23:15:08.824Z,100151.34
2023-09-11T23:20:14.411Z,100165.13
2023-09-11T23:25:16.741Z,100150.03
2023-09-11T23:30:19.007Z,100150.53
2023-09-11T23:35:21.279Z,100155.37
2023-09-11T23:40:23.368Z,100145.97
2023-09-11T23:45:25.720Z,100151.16
2023-09-11T23:50:27.878Z,100157.78
2023-09-11T23:55:30.066Z,100153.88
